createdAt,value
2018-03-02T00:00:33.837Z,986.27
2018-03-02T00:01:14.352Z,986.25
2018-03-02T00:01:54.849Z,986.23
2018-03-02T00:02:35.360Z,986.18
2018-03-02T00:03:15.882Z,986.28
2018-03-02T00:03:56.394Z,986.26
2018-03-02T00:04:37.307Z,986.17
2018-03-02T00:05:17.866Z,986.11
2018-03-02T00:05:58.392Z,986.2
2018-03-02T00:06:39.013Z,986.32
2018-03-02T00:07:19.408Z,986.24
2018-03-02T00:07:59.905Z,986.17
2018-03-02T00:08:40.413Z,986.38
2018-03-02T00:09:20.942Z,986.17
2018-03-02T00:10:01.508Z,986.15
2018-03-02T00:10:41.974Z,986.13
2018-03-02T00:11:22.473Z,986.15
2018-03-02T00:12:03.103Z,986.18
2018-03-02T00:12:43.967Z,986.06
2018-03-02T00:13:24.484Z,986.12
2018-03-02T00:14:04.994Z,986.07
2018-03-02T00:14:45.510Z,986.04
2018-03-02T00:15:26.017Z,986.09
2018-03-02T00:16:06.546Z,986.1
2018-03-02T00:16:47.016Z,986.02
2018-03-02T00:17:27.521Z,986.01
2018-03-02T00:18:08.097Z,986.02
2018-03-02T00:18:48.836Z,986.09
2018-03-02T00:19:29.302Z,985.98
2018-03-02T00:20:09.828Z,986
2018-03-02T00:20:50.306Z,985.95
2018-03-02T00:21:30.801Z,985.96
2018-03-02T00:22:11.318Z,986
2018-03-02T00:22:51.808Z,985.87
2018-03-02T00:23:32.305Z,985.82
2018-03-02T00:24:12.840Z,985.79
2018-03-02T00:24:53.356Z,985.7
2018-03-02T00:25:33.844Z,985.73
2018-03-02T00:26:14.338Z,985.76
2018-03-02T00:26:54.853Z,985.75
2018-03-02T00:27:35.368Z,985.75
2018-03-02T00:28:15.884Z,985.83
2018-03-02T00:28:56.397Z,985.74
2018-03-02T00:29:36.900Z,985.71
2018-03-02T00:30:17.427Z,985.79
2018-03-02T00:30:57.958Z,985.72
2018-03-02T00:31:38.474Z,985.75
2018-03-02T00:32:18.994Z,985.73
2018-03-02T00:32:59.521Z,985.72
2018-03-02T00:33:40.080Z,985.78
2018-03-02T00:34:20.667Z,985.83
2018-03-02T00:35:01.121Z,985.7
2018-03-02T00:35:41.783Z,985.75
2018-03-02T00:36:22.237Z,985.69
2018-03-02T00:37:02.747Z,985.66
2018-03-02T00:37:43.238Z,985.66
2018-03-02T00:38:23.776Z,985.62
2018-03-02T00:39:04.235Z,985.67
2018-03-02T00:39:44.734Z,985.64
2018-03-02T00:40:25.261Z,985.69
2018-03-02T00:41:05.758Z,985.65
2018-03-02T00:41:46.360Z,985.66
2018-03-02T00:42:26.940Z,985.56
2018-03-02T00:43:07.428Z,985.58
2018-03-02T00:43:47.932Z,985.7
2018-03-02T00:45:47.894Z,985.62
2018-03-02T00:46:28.403Z,985.61
2018-03-02T00:47:08.926Z,985.6
2018-03-02T00:47:49.445Z,985.63
2018-03-02T00:48:29.958Z,985.62
2018-03-02T00:49:10.503Z,985.54
2018-03-02T00:49:51.015Z,985.6
2018-03-02T00:50:31.608Z,985.59
2018-03-02T00:51:12.120Z,985.68
2018-03-02T00:51:52.952Z,985.51
2018-03-02T00:52:33.537Z,985.51
2018-03-02T00:53:14.053Z,985.42
2018-03-02T00:53:54.578Z,985.51
2018-03-02T00:54:35.075Z,985.51
2018-03-02T00:55:15.584Z,985.6
2018-03-02T00:55:56.087Z,985.44
2018-03-02T00:56:36.737Z,985.5
2018-03-02T00:57:17.130Z,985.47
2018-03-02T00:57:57.670Z,985.47
2018-03-02T00:58:38.143Z,985.51
2018-03-02T00:59:19.460Z,985.62
2018-03-02T00:59:59.939Z,985.57
2018-03-02T01:00:40.423Z,985.61
2018-03-02T01:01:21.223Z,985.44
2018-03-02T01:02:01.733Z,985.5
2018-03-02T01:02:42.226Z,985.46
2018-03-02T01:03:22.776Z,985.53
2018-03-02T01:04:03.270Z,985.61
2018-03-02T01:04:43.775Z,985.49
2018-03-02T01:05:24.274Z,985.56
2018-03-02T01:06:04.782Z,985.6
2018-03-02T01:06:45.271Z,985.58
2018-03-02T01:07:25.884Z,985.41
2018-03-02T01:08:06.643Z,985.59
2018-03-02T01:10:35.320Z,985.39
2018-03-02T01:11:15.847Z,985.43
2018-03-02T01:13:46.290Z,985.44
2018-03-02T01:14:26.913Z,985.36
2018-03-02T01:15:07.424Z,985.39
2018-03-02T01:15:47.954Z,985.43
2018-03-02T01:16:28.421Z,985.39
2018-03-02T01:17:08.901Z,985.36
2018-03-02T01:17:49.458Z,985.37
2018-03-02T01:18:29.914Z,985.33
2018-03-02T01:19:10.415Z,985.34
2018-03-02T01:19:50.876Z,985.23
2018-03-02T01:20:31.347Z,985.32
2018-03-02T01:21:11.881Z,985.26
2018-03-02T01:21:52.363Z,985.35
2018-03-02T01:22:32.838Z,985.29
2018-03-02T01:23:13.348Z,985.2
2018-03-02T01:23:53.881Z,985.16
2018-03-02T01:24:34.420Z,985.18
2018-03-02T01:25:15.014Z,985.19
2018-03-02T01:25:55.482Z,985.22
2018-03-02T01:26:35.955Z,985.24
2018-03-02T01:27:16.441Z,985.14
2018-03-02T01:27:56.959Z,985.17
2018-03-02T01:28:37.413Z,985.13
2018-03-02T01:29:17.966Z,985.23
2018-03-02T01:29:58.443Z,985.2
2018-03-02T01:30:39.028Z,985.18
2018-03-02T01:31:19.528Z,985.21
2018-03-02T01:32:00.058Z,985.09
2018-03-02T01:32:40.437Z,985.12
2018-03-02T01:33:20.885Z,985.15
2018-03-02T01:34:01.438Z,985.18
2018-03-02T01:34:41.924Z,985.16
2018-03-02T01:35:22.381Z,985.11
2018-03-02T01:36:02.888Z,985.08
2018-03-02T01:36:43.364Z,985.22
2018-03-02T01:37:23.856Z,985.08
2018-03-02T01:38:04.483Z,985.06
2018-03-02T01:38:44.995Z,985.11
2018-03-02T01:39:25.526Z,985.06
2018-03-02T01:40:05.980Z,985.13
2018-03-02T01:40:46.484Z,985.1
2018-03-02T01:41:26.980Z,985
2018-03-02T01:42:07.495Z,985.07
2018-03-02T01:42:48.015Z,985.08
2018-03-02T01:43:28.521Z,985.05
2018-03-02T01:44:09.016Z,985.1
2018-03-02T01:44:49.548Z,985.14
2018-03-02T01:45:29.993Z,985.08
2018-03-02T01:46:10.501Z,985.07
2018-03-02T01:46:51.023Z,985.02
2018-03-02T01:47:31.522Z,985.02
2018-03-02T01:48:12.005Z,985.11
2018-03-02T01:48:52.504Z,985.01
2018-03-02T01:49:32.941Z,985.05
2018-03-02T01:50:13.455Z,985.08
2018-03-02T01:50:53.980Z,985.12
2018-03-02T01:51:34.436Z,985.05
2018-03-02T01:52:14.981Z,985.12
2018-03-02T01:52:55.455Z,985.06
2018-03-02T01:53:36.089Z,985.05
2018-03-02T01:54:16.598Z,985.1
2018-03-02T01:54:57.102Z,985.06
2018-03-02T01:55:37.589Z,985.14
2018-03-02T01:56:18.092Z,985.14
2018-03-02T01:56:58.568Z,985.04
2018-03-02T01:57:39.112Z,985.11
2018-03-02T01:58:19.824Z,985.05
2018-03-02T01:59:00.381Z,985.08
2018-03-02T01:59:40.815Z,985.03
2018-03-02T02:00:21.294Z,985.17
2018-03-02T02:01:01.816Z,985.11
2018-03-02T02:03:01.753Z,985.16
2018-03-02T02:03:42.251Z,985.06
2018-03-02T02:04:22.742Z,985.06
2018-03-02T02:05:03.259Z,985.21
2018-03-02T02:05:43.763Z,985.12
2018-03-02T02:06:24.357Z,985.02
2018-03-02T02:07:04.803Z,985.12
2018-03-02T02:07:45.293Z,985.12
2018-03-02T02:08:25.799Z,985.1
2018-03-02T02:09:06.301Z,985.15
2018-03-02T02:09:46.809Z,985.15
2018-03-02T02:10:27.328Z,985.12
2018-03-02T02:11:07.830Z,985.11
2018-03-02T02:11:48.352Z,985.12
2018-03-02T02:12:28.857Z,985.03
2018-03-02T02:13:09.372Z,985.09
2018-03-02T02:13:49.876Z,985.03
2018-03-02T02:14:30.351Z,985.04
2018-03-02T02:15:10.852Z,985.08
2018-03-02T02:15:51.370Z,985
2018-03-02T02:16:31.877Z,985
2018-03-02T02:17:12.378Z,984.96
2018-03-02T02:17:52.877Z,985.02
2018-03-02T02:18:33.390Z,984.98
2018-03-02T02:19:13.909Z,984.96
2018-03-02T02:19:54.427Z,984.94
2018-03-02T02:20:34.941Z,985.01
2018-03-02T02:21:15.464Z,984.99
2018-03-02T02:21:55.973Z,984.93
2018-03-02T02:22:36.489Z,985.02
2018-03-02T02:23:16.988Z,984.93
2018-03-02T02:23:57.494Z,984.85
2018-03-02T02:24:38.007Z,984.83
2018-03-02T02:25:18.531Z,984.84
2018-03-02T02:25:59.045Z,984.86
2018-03-02T02:26:39.558Z,984.88
2018-03-02T02:27:20.066Z,984.86
2018-03-02T02:28:00.606Z,984.9
2018-03-02T02:28:41.109Z,984.9
2018-03-02T02:29:21.616Z,984.88
2018-03-02T02:30:02.135Z,984.92
2018-03-02T02:30:42.640Z,984.9
2018-03-02T02:31:23.162Z,984.91
2018-03-02T02:32:03.666Z,984.84
2018-03-02T02:32:44.188Z,984.89
2018-03-02T02:33:24.705Z,984.79
2018-03-02T02:34:05.230Z,984.83
2018-03-02T02:34:45.717Z,984.8
2018-03-02T02:35:26.229Z,984.8
2018-03-02T02:36:06.741Z,984.81
2018-03-02T02:36:47.250Z,984.8
2018-03-02T02:37:27.760Z,984.78
2018-03-02T02:38:08.280Z,984.77
2018-03-02T02:38:48.793Z,984.75
2018-03-02T02:39:29.305Z,984.72
2018-03-02T02:40:09.805Z,984.7
2018-03-02T02:40:50.327Z,984.63
2018-03-02T02:41:30.831Z,984.65
2018-03-02T02:42:11.339Z,984.66
2018-03-02T02:42:51.843Z,984.72
2018-03-02T02:43:32.345Z,984.64
2018-03-02T02:44:12.853Z,984.65
2018-03-02T02:44:53.367Z,984.66
2018-03-02T02:45:33.881Z,984.61
2018-03-02T02:46:14.388Z,984.62
2018-03-02T02:46:54.890Z,984.67
2018-03-02T02:47:35.414Z,984.69
2018-03-02T02:48:15.915Z,984.69
2018-03-02T02:48:56.447Z,984.68
2018-03-02T02:49:36.970Z,984.58
2018-03-02T02:50:17.470Z,984.63
2018-03-02T02:50:57.995Z,984.56
2018-03-02T02:51:38.518Z,984.65
2018-03-02T02:52:19.027Z,984.57
2018-03-02T02:52:59.532Z,984.66
2018-03-02T02:53:40.057Z,984.57
2018-03-02T02:54:20.572Z,984.51
2018-03-02T02:55:01.088Z,984.51
2018-03-02T02:55:41.608Z,984.51
2018-03-02T02:56:22.136Z,984.56
2018-03-02T02:57:02.633Z,984.49
2018-03-02T02:57:43.129Z,984.39
2018-03-02T02:58:23.645Z,984.43
2018-03-02T02:59:04.157Z,984.39
2018-03-02T02:59:44.657Z,984.44
2018-03-02T03:00:25.163Z,984.45
2018-03-02T03:01:05.678Z,984.38
2018-03-02T03:01:46.188Z,984.44
2018-03-02T03:02:26.703Z,984.4
2018-03-02T03:03:07.229Z,984.36
2018-03-02T03:03:47.728Z,984.37
2018-03-02T03:04:28.242Z,984.37
2018-03-02T03:05:08.779Z,984.36
2018-03-02T03:05:49.298Z,984.3
2018-03-02T03:06:29.782Z,984.35
2018-03-02T03:07:10.305Z,984.26
2018-03-02T03:07:50.917Z,984.27
2018-03-02T03:08:31.414Z,984.24
2018-03-02T03:09:11.925Z,984.21
2018-03-02T03:09:52.498Z,984.22
2018-03-02T03:10:33.013Z,984.15
2018-03-02T03:11:13.516Z,984.24
2018-03-02T03:11:54.124Z,984.19
2018-03-02T03:12:34.652Z,984.17
2018-03-02T03:13:15.157Z,984.22
2018-03-02T03:13:55.673Z,984.32
2018-03-02T03:14:36.173Z,984.37
2018-03-02T03:15:16.744Z,984.36
2018-03-02T03:15:57.232Z,984.38
2018-03-02T03:16:37.751Z,984.32
2018-03-02T03:17:18.259Z,984.34
2018-03-02T03:17:58.771Z,984.32
2018-03-02T03:18:39.283Z,984.38
2018-03-02T03:19:19.794Z,984.3
2018-03-02T03:20:00.316Z,984.36
2018-03-02T03:20:40.830Z,984.28
2018-03-02T03:21:21.356Z,984.29
2018-03-02T03:22:01.874Z,984.35
2018-03-02T03:22:42.375Z,984.43
2018-03-02T03:23:22.888Z,984.34
2018-03-02T03:24:03.406Z,984.4
2018-03-02T03:24:43.921Z,984.42
2018-03-02T03:25:24.429Z,984.37
2018-03-02T03:26:04.934Z,984.35
2018-03-02T03:26:45.435Z,984.48
2018-03-02T03:27:25.946Z,984.31
2018-03-02T03:28:06.463Z,984.29
2018-03-02T03:28:46.977Z,984.31
2018-03-02T03:29:27.489Z,984.32
2018-03-02T03:30:07.995Z,984.29
2018-03-02T03:30:48.553Z,984.32
2018-03-02T03:31:29.060Z,984.28
2018-03-02T03:32:09.585Z,984.33
2018-03-02T03:32:50.108Z,984.38
2018-03-02T03:33:30.617Z,984.27
2018-03-02T03:34:11.121Z,984.24
2018-03-02T03:34:51.637Z,984.27
2018-03-02T03:35:32.172Z,984.39
2018-03-02T03:36:12.687Z,984.25
2018-03-02T03:36:53.192Z,984.28
2018-03-02T03:37:33.691Z,984.32
2018-03-02T03:38:14.204Z,984.25
2018-03-02T03:38:54.733Z,984.28
2018-03-02T03:39:35.265Z,984.27
2018-03-02T03:40:15.753Z,984.26
2018-03-02T03:40:56.306Z,984.24
2018-03-02T03:41:36.775Z,984.21
2018-03-02T03:42:17.298Z,984.29
2018-03-02T03:42:57.818Z,984.38
2018-03-02T03:43:38.896Z,984.12
2018-03-02T03:44:19.389Z,984.13
2018-03-02T03:44:59.949Z,984.07
2018-03-02T03:45:40.451Z,984
2018-03-02T03:46:20.957Z,984.18
2018-03-02T03:47:01.506Z,983.94
2018-03-02T03:47:42.020Z,984.01
2018-03-02T03:48:22.529Z,984.16
2018-03-02T03:49:03.035Z,984.06
2018-03-02T03:49:43.553Z,984.06
2018-03-02T03:50:24.062Z,984.04
2018-03-02T03:51:04.592Z,984.04
2018-03-02T03:51:45.104Z,983.92
2018-03-02T03:52:25.604Z,983.98
2018-03-02T03:53:06.123Z,983.88
2018-03-02T03:53:46.641Z,983.91
2018-03-02T03:54:27.189Z,983.91
2018-03-02T03:55:07.698Z,983.83
2018-03-02T03:55:48.211Z,983.81
2018-03-02T03:56:28.722Z,983.86
2018-03-02T03:57:09.285Z,983.88
2018-03-02T03:57:49.787Z,983.85
2018-03-02T04:00:18.327Z,983.81
2018-03-02T04:00:58.844Z,983.82
2018-03-02T04:01:39.360Z,983.72
2018-03-02T04:02:19.862Z,983.74
2018-03-02T04:03:00.374Z,983.72
2018-03-02T04:03:40.890Z,983.82
2018-03-02T04:04:21.402Z,983.7
2018-03-02T04:05:01.926Z,983.78
2018-03-02T04:05:42.460Z,983.65
2018-03-02T04:06:22.972Z,983.64
2018-03-02T04:07:03.478Z,983.65
2018-03-02T04:07:43.994Z,983.66
2018-03-02T04:08:24.506Z,983.51
2018-03-02T04:09:05.018Z,983.55
2018-03-02T04:09:45.520Z,983.43
2018-03-02T04:10:26.030Z,983.4
2018-03-02T04:11:06.551Z,983.34
2018-03-02T04:11:47.052Z,983.4
2018-03-02T04:12:27.560Z,983.52
2018-03-02T04:13:08.094Z,983.27
2018-03-02T04:13:48.603Z,983.24
2018-03-02T04:14:29.104Z,983.28
2018-03-02T04:15:09.625Z,983.28
2018-03-02T04:15:50.144Z,983.3
2018-03-02T04:16:30.659Z,983.23
2018-03-02T04:17:11.175Z,983.33
2018-03-02T04:17:51.704Z,983.31
2018-03-02T04:18:32.211Z,983.2
2018-03-02T04:19:12.728Z,983.18
2018-03-02T04:19:53.235Z,983.14
2018-03-02T04:20:33.738Z,983.14
2018-03-02T04:21:14.249Z,983.05
2018-03-02T04:21:54.759Z,983.16
2018-03-02T04:22:35.273Z,983.12
2018-03-02T04:23:15.791Z,983.21
2018-03-02T04:23:56.312Z,983.17
2018-03-02T04:24:36.807Z,983.16
2018-03-02T04:25:17.311Z,983.19
2018-03-02T04:25:57.821Z,983.19
2018-03-02T04:26:38.322Z,983.34
2018-03-02T04:27:18.838Z,983.25
2018-03-02T04:27:59.355Z,983.36
2018-03-02T04:28:39.860Z,983.34
2018-03-02T04:29:20.380Z,983.28
2018-03-02T04:30:00.869Z,983.33
2018-03-02T04:30:41.383Z,983.37
2018-03-02T04:31:21.896Z,983.34
2018-03-02T04:32:02.393Z,983.36
2018-03-02T04:32:42.905Z,983.45
2018-03-02T04:33:23.406Z,983.28
2018-03-02T04:34:03.913Z,983.41
2018-03-02T04:34:44.434Z,983.36
2018-03-02T04:35:24.962Z,983.28
2018-03-02T04:36:05.467Z,983.23
2018-03-02T04:36:45.969Z,983.39
2018-03-02T04:37:26.482Z,983.25
2018-03-02T04:38:07.078Z,983.19
2018-03-02T04:38:47.592Z,983.25
2018-03-02T04:39:28.095Z,983.23
2018-03-02T04:40:08.610Z,983.29
2018-03-02T04:40:49.135Z,983.5
2018-03-02T04:41:29.641Z,983.32
2018-03-02T04:43:24.485Z,983.36
2018-03-02T04:44:04.970Z,983.34
2018-03-02T04:44:45.478Z,983.25
2018-03-02T04:45:25.987Z,983.22
2018-03-02T04:46:06.527Z,983.16
2018-03-02T04:46:47.029Z,983.28
2018-03-02T04:47:27.545Z,983.19
2018-03-02T04:48:08.062Z,983.22
2018-03-02T04:48:48.545Z,983.23
2018-03-02T04:49:29.077Z,983.35
2018-03-02T04:50:09.580Z,983.41
2018-03-02T04:50:50.069Z,983.34
2018-03-02T04:51:30.601Z,983.31
2018-03-02T04:52:11.101Z,983.29
2018-03-02T04:52:51.710Z,983.23
2018-03-02T04:53:32.133Z,983.19
2018-03-02T04:54:12.613Z,983.1
2018-03-02T04:54:53.133Z,983.05
2018-03-02T04:55:33.639Z,983.01
2018-03-02T04:56:14.161Z,983.04
2018-03-02T04:56:54.663Z,983.03
2018-03-02T04:57:35.168Z,983.04
2018-03-02T04:58:15.659Z,983.08
2018-03-02T04:58:56.172Z,983.11
2018-03-02T04:59:36.659Z,983.04
2018-03-02T05:00:17.166Z,983.02
2018-03-02T05:00:57.657Z,983.02
2018-03-02T05:01:38.173Z,983.04
2018-03-02T05:02:18.665Z,983.02
2018-03-02T05:02:59.146Z,982.92
2018-03-02T05:03:39.672Z,982.92
2018-03-02T05:04:20.158Z,982.99
2018-03-02T05:05:00.642Z,982.95
2018-03-02T05:05:41.148Z,983.03
2018-03-02T05:06:21.641Z,982.94
2018-03-02T05:07:02.156Z,982.96
2018-03-02T05:07:42.665Z,982.97
2018-03-02T05:08:23.161Z,982.98
2018-03-02T05:09:03.688Z,982.93
2018-03-02T05:09:44.189Z,982.89
2018-03-02T05:10:24.701Z,982.99
2018-03-02T05:11:05.186Z,982.93
2018-03-02T05:11:45.703Z,982.93
2018-03-02T05:12:26.195Z,982.94
2018-03-02T05:13:06.692Z,983.03
2018-03-02T05:13:47.228Z,983
2018-03-02T05:14:27.734Z,983
2018-03-02T05:15:08.195Z,983.02
2018-03-02T05:15:48.706Z,982.97
2018-03-02T05:16:29.214Z,982.94
2018-03-02T05:17:09.692Z,983
2018-03-02T05:17:50.215Z,982.92
2018-03-02T05:18:30.710Z,982.98
2018-03-02T05:19:11.215Z,982.95
2018-03-02T05:21:11.132Z,983.01
2018-03-02T05:21:51.643Z,982.97
2018-03-02T05:22:32.157Z,982.91
2018-03-02T05:23:12.686Z,982.89
2018-03-02T05:23:53.168Z,982.97
2018-03-02T05:24:33.687Z,982.91
2018-03-02T05:25:14.219Z,982.84
2018-03-02T05:25:54.724Z,982.86
2018-03-02T05:26:35.229Z,982.92
2018-03-02T05:27:15.722Z,982.92
2018-03-02T05:27:56.239Z,982.94
2018-03-02T05:28:36.737Z,982.95
2018-03-02T05:29:17.228Z,982.84
2018-03-02T05:29:57.752Z,982.79
2018-03-02T05:30:38.250Z,982.76
2018-03-02T05:31:18.763Z,982.78
2018-03-02T05:31:59.272Z,982.84
2018-03-02T05:32:39.812Z,982.84
2018-03-02T05:33:20.324Z,982.85
2018-03-02T05:34:00.858Z,982.89
2018-03-02T05:34:41.467Z,982.79
2018-03-02T05:35:21.970Z,982.78
2018-03-02T05:36:02.470Z,982.93
2018-03-02T05:36:42.974Z,982.86
2018-03-02T05:37:23.489Z,982.78
2018-03-02T05:38:04.051Z,982.89
2018-03-02T05:38:44.557Z,982.77
2018-03-02T05:40:57.769Z,982.99
2018-03-02T05:41:38.281Z,982.7
2018-03-02T05:42:18.788Z,982.73
2018-03-02T05:42:59.286Z,982.73
2018-03-02T05:43:39.782Z,982.77
2018-03-02T05:44:20.280Z,982.83
2018-03-02T05:45:00.788Z,982.72
2018-03-02T05:45:41.306Z,982.68
2018-03-02T05:46:21.818Z,982.81
2018-03-02T05:47:02.353Z,982.74
2018-03-02T05:47:42.851Z,982.7
2018-03-02T05:48:23.359Z,982.67
2018-03-02T05:49:03.865Z,982.78
2018-03-02T05:49:44.320Z,982.85
2018-03-02T05:50:24.823Z,982.68
2018-03-02T05:51:05.344Z,982.69
2018-03-02T05:51:45.906Z,982.71
2018-03-02T05:52:26.442Z,982.67
2018-03-02T05:53:06.932Z,982.69
2018-03-02T05:53:47.440Z,982.66
2018-03-02T05:54:27.939Z,982.9
2018-03-02T05:55:08.443Z,982.62
2018-03-02T05:55:48.932Z,982.64
2018-03-02T05:56:29.435Z,982.68
2018-03-02T05:57:09.981Z,982.75
2018-03-02T05:57:50.505Z,982.63
2018-03-02T05:58:30.970Z,982.58
2018-03-02T05:59:11.480Z,982.67
2018-03-02T05:59:51.970Z,982.66
2018-03-02T06:00:32.471Z,982.62
2018-03-02T06:01:12.961Z,982.67
2018-03-02T06:01:53.489Z,982.64
2018-03-02T06:02:34.024Z,982.64
2018-03-02T06:03:14.705Z,982.7
2018-03-02T06:03:55.318Z,982.68
2018-03-02T06:04:35.836Z,982.65
2018-03-02T06:05:16.336Z,982.7
2018-03-02T06:05:56.829Z,982.69
2018-03-02T06:06:37.338Z,982.69
2018-03-02T06:07:17.868Z,982.64
2018-03-02T06:07:58.372Z,982.51
2018-03-02T06:08:38.878Z,982.52
2018-03-02T06:09:19.392Z,982.55
2018-03-02T06:09:59.899Z,982.57
2018-03-02T06:10:40.447Z,982.57
2018-03-02T06:11:20.985Z,982.56
2018-03-02T06:12:01.492Z,982.61
2018-03-02T06:12:42.009Z,982.56
2018-03-02T06:13:22.500Z,982.63
2018-03-02T06:14:03.014Z,982.62
2018-03-02T06:14:43.502Z,982.65
2018-03-02T06:15:24.005Z,982.73
2018-03-02T06:16:04.515Z,982.57
2018-03-02T06:16:45.035Z,982.58
2018-03-02T06:17:25.554Z,982.56
2018-03-02T06:18:06.154Z,982.61
2018-03-02T06:18:46.703Z,982.51
2018-03-02T06:19:27.193Z,982.52
2018-03-02T06:20:07.710Z,982.54
2018-03-02T06:20:48.209Z,982.52
2018-03-02T06:21:28.729Z,982.46
2018-03-02T06:22:09.268Z,982.49
2018-03-02T06:22:49.775Z,982.54
2018-03-02T06:23:30.270Z,982.46
2018-03-02T06:25:43.726Z,982.49
2018-03-02T06:26:24.234Z,982.41
2018-03-02T06:27:04.733Z,982.53
2018-03-02T06:27:45.243Z,982.5
2018-03-02T06:28:25.731Z,982.45
2018-03-02T06:29:06.273Z,982.57
2018-03-02T06:29:46.772Z,982.58
2018-03-02T06:30:27.272Z,982.44
2018-03-02T06:31:07.791Z,982.51
2018-03-02T06:31:48.306Z,982.49
2018-03-02T06:32:28.826Z,982.54
2018-03-02T06:33:09.336Z,982.54
2018-03-02T06:33:49.849Z,982.54
2018-03-02T06:34:30.337Z,982.42
2018-03-02T06:35:10.833Z,982.5
2018-03-02T06:35:51.371Z,982.5
2018-03-02T06:36:31.881Z,982.57
2018-03-02T06:37:12.386Z,982.53
2018-03-02T06:37:52.891Z,982.57
2018-03-02T06:38:33.401Z,982.55
2018-03-02T06:39:13.934Z,982.51
2018-03-02T06:39:54.430Z,982.51
2018-03-02T06:40:34.940Z,982.54
2018-03-02T06:41:15.464Z,982.6
2018-03-02T06:41:55.971Z,982.63
2018-03-02T06:42:36.478Z,982.6
2018-03-02T06:43:16.987Z,982.64
2018-03-02T06:43:57.510Z,982.58
2018-03-02T06:44:38.020Z,982.67
2018-03-02T06:45:18.546Z,982.54
2018-03-02T06:45:59.056Z,982.57
2018-03-02T06:46:39.573Z,982.58
2018-03-02T06:47:20.096Z,982.62
2018-03-02T06:48:00.609Z,982.53
2018-03-02T06:48:41.125Z,982.59
2018-03-02T06:49:21.633Z,982.56
2018-03-02T06:50:02.154Z,982.63
2018-03-02T06:50:42.650Z,982.6
2018-03-02T06:51:23.177Z,982.52
2018-03-02T06:52:03.679Z,982.53
2018-03-02T06:52:44.177Z,982.61
2018-03-02T06:53:24.690Z,982.66
2018-03-02T06:54:05.189Z,982.72
2018-03-02T06:54:45.728Z,982.68
2018-03-02T06:55:26.237Z,982.55
2018-03-02T06:56:06.769Z,982.6
2018-03-02T06:56:47.300Z,982.54
2018-03-02T06:57:27.809Z,982.55
2018-03-02T06:58:08.331Z,982.65
2018-03-02T06:58:48.843Z,982.54
2018-03-02T06:59:29.356Z,982.51
2018-03-02T07:00:09.879Z,982.49
2018-03-02T07:00:50.391Z,982.48
2018-03-02T07:01:30.897Z,982.51
2018-03-02T07:02:11.395Z,982.5
2018-03-02T07:02:51.898Z,982.48
2018-03-02T07:03:32.451Z,982.49
2018-03-02T07:04:12.957Z,982.48
2018-03-02T07:04:53.477Z,982.48
2018-03-02T07:05:34.011Z,982.53
2018-03-02T07:06:14.666Z,982.52
2018-03-02T07:06:55.034Z,982.46
2018-03-02T07:07:35.535Z,982.53
2018-03-02T07:08:16.037Z,982.41
2018-03-02T07:08:56.549Z,982.4
2018-03-02T07:09:37.059Z,982.45
2018-03-02T07:10:17.596Z,982.47
2018-03-02T07:10:58.140Z,982.45
2018-03-02T07:11:38.636Z,982.42
2018-03-02T07:12:19.130Z,982.61
2018-03-02T07:12:59.652Z,982.48
2018-03-02T07:13:40.163Z,982.47
2018-03-02T07:14:20.675Z,982.47
2018-03-02T07:15:01.193Z,982.51
2018-03-02T07:15:41.896Z,982.47
2018-03-02T07:16:22.425Z,982.46
2018-03-02T07:17:02.941Z,982.43
2018-03-02T07:17:43.466Z,982.43
2018-03-02T07:18:23.978Z,982.41
2018-03-02T07:19:04.488Z,982.44
2018-03-02T07:19:44.999Z,982.43
2018-03-02T07:20:25.524Z,982.33
2018-03-02T07:21:06.062Z,982.3
2018-03-02T07:21:46.538Z,982.37
2018-03-02T07:22:27.094Z,982.4
2018-03-02T07:23:07.571Z,982.35
2018-03-02T07:23:48.091Z,982.28
2018-03-02T07:24:28.639Z,982.25
2018-03-02T07:25:09.144Z,982.34
2018-03-02T07:25:49.634Z,982.37
2018-03-02T07:26:30.138Z,982.25
2018-03-02T07:27:10.714Z,982.35
2018-03-02T07:27:51.234Z,982.46
2018-03-02T07:28:31.742Z,982.43
2018-03-02T07:29:12.999Z,982.31
2018-03-02T07:29:53.324Z,982.38
2018-03-02T07:30:33.831Z,982.29
2018-03-02T07:31:14.389Z,982.23
2018-03-02T07:31:54.902Z,982.24
2018-03-02T07:32:35.420Z,982.22
2018-03-02T07:33:15.969Z,982.25
2018-03-02T07:33:57.442Z,982.29
2018-03-02T07:34:38.171Z,982.27
2018-03-02T07:35:18.717Z,982.4
2018-03-02T07:35:59.217Z,982.36
2018-03-02T07:36:39.728Z,982.41
2018-03-02T07:37:20.261Z,982.33
2018-03-02T07:38:00.763Z,982.34
2018-03-02T07:38:41.270Z,982.28
2018-03-02T07:39:21.775Z,982.26
2018-03-02T07:40:02.292Z,982.28
2018-03-02T07:40:42.833Z,982.22
2018-03-02T07:41:23.363Z,982.19
2018-03-02T07:42:03.858Z,982.37
2018-03-02T07:42:44.354Z,982.29
2018-03-02T07:43:24.859Z,982.22
2018-03-02T07:44:05.365Z,982.15
2018-03-02T07:44:45.872Z,982.18
2018-03-02T07:45:26.401Z,982.24
2018-03-02T07:46:06.890Z,982.13
2018-03-02T07:46:47.408Z,982.29
2018-03-02T07:47:27.924Z,982.18
2018-03-02T07:48:08.442Z,982.19
2018-03-02T07:48:48.952Z,982.26
2018-03-02T07:49:29.466Z,982.25
2018-03-02T07:50:09.994Z,982.15
2018-03-02T07:50:50.512Z,982.17
2018-03-02T07:51:31.040Z,982.12
2018-03-02T07:52:11.542Z,982.17
2018-03-02T07:52:52.060Z,982.13
2018-03-02T07:53:32.579Z,982.13
2018-03-02T07:54:13.157Z,982.12
2018-03-02T07:54:53.706Z,982.17
2018-03-02T07:56:51.857Z,982.14
2018-03-02T07:57:33.182Z,982.22
2018-03-02T07:58:13.715Z,982.18
2018-03-02T07:58:54.217Z,982.14
2018-03-02T07:59:34.743Z,982.22
2018-03-02T08:00:15.263Z,982.37
2018-03-02T08:00:55.777Z,982.18
2018-03-02T08:01:36.732Z,982.2
2018-03-02T08:02:17.252Z,982.16
2018-03-02T08:02:57.759Z,982.18
2018-03-02T08:03:38.327Z,982.32
2018-03-02T08:04:18.835Z,982.24
2018-03-02T08:04:59.320Z,982.17
2018-03-02T08:05:39.829Z,982.18
2018-03-02T08:06:20.341Z,982.2
2018-03-02T08:07:00.875Z,982.16
2018-03-02T08:09:19.339Z,982.13
2018-03-02T08:09:59.910Z,982.2
2018-03-02T08:10:40.446Z,982.13
2018-03-02T08:11:20.953Z,982.13
2018-03-02T08:12:01.454Z,982.09
2018-03-02T08:12:41.988Z,982.12
2018-03-02T08:13:22.566Z,982.08
2018-03-02T08:14:03.085Z,982.08
2018-03-02T08:14:43.593Z,982.1
2018-03-02T08:15:24.089Z,982.05
2018-03-02T08:16:04.623Z,982.07
2018-03-02T08:16:45.151Z,982.07
2018-03-02T08:17:25.647Z,982.03
2018-03-02T08:18:06.157Z,982.05
2018-03-02T08:18:46.688Z,982.02
2018-03-02T08:19:27.358Z,982.17
2018-03-02T08:20:07.862Z,982.05
2018-03-02T08:20:48.397Z,982.01
2018-03-02T08:21:28.890Z,982.05
2018-03-02T08:22:09.528Z,981.98
2018-03-02T08:22:50.063Z,982.03
2018-03-02T08:23:30.544Z,982.03
2018-03-02T08:24:11.036Z,981.93
2018-03-02T08:24:51.561Z,982.01
2018-03-02T08:25:32.069Z,981.96
2018-03-02T08:26:12.614Z,981.92
2018-03-02T08:26:53.168Z,981.99
2018-03-02T08:27:33.693Z,981.9
2018-03-02T08:28:14.343Z,982
2018-03-02T08:28:55.000Z,981.97
2018-03-02T08:29:36.488Z,982.18
2018-03-02T08:30:16.991Z,982.08
2018-03-02T08:30:57.496Z,982.16
2018-03-02T08:31:38.006Z,981.98
2018-03-02T08:32:18.534Z,982.03
2018-03-02T08:32:59.040Z,982
2018-03-02T08:33:39.564Z,982.12
2018-03-02T08:34:20.092Z,982.06
2018-03-02T08:35:00.612Z,982.07
2018-03-02T08:35:41.100Z,981.98
2018-03-02T08:36:21.597Z,982.04
2018-03-02T08:37:02.109Z,981.94
2018-03-02T08:37:42.621Z,981.89
2018-03-02T08:38:23.153Z,981.96
2018-03-02T08:39:03.627Z,981.98
2018-03-02T08:39:44.101Z,981.91
2018-03-02T08:40:24.594Z,981.91
2018-03-02T08:41:05.039Z,981.92
2018-03-02T08:41:45.530Z,982
2018-03-02T08:42:26.030Z,981.97
2018-03-02T08:43:06.509Z,981.96
2018-03-02T08:43:47.098Z,981.91
2018-03-02T08:44:27.604Z,981.92